sensor_id;sensor_type;location;lat;lon;timestamp;pressure;altitude;pressure_sealevel;temperature;humidity
50322;BME280;36227;53.366;-1.426;2023-03-13T00:02:16;73744.97;;;-214.67;100.00
50322;BME280;36227;53.366;-1.426;2023-03-13T00:04:41;73805.07;;;-214.43;100.00
50322;BME280;36227;53.366;-1.426;2023-03-13T00:07:07;73801.67;;;-214.43;100.00
50322;BME280;36227;53.366;-1.426;2023-03-13T00:09:32;73821.74;;;-214.43;100.00
50322;BME280;36227;53.366;-1.426;2023-03-13T00:11:57;73849.78;;;-214.67;100.00
50322;BME280;36227;53.366;-1.426;2023-03-13T00:14:22;73808.36;;;-214.43;100.00
50322;BME280;36227;53.366;-1.426;2023-03-13T00:16:47;73874.65;;;-213.96;100.00
50322;BME280;36227;53.366;-1.426;2023-03-13T00:19:14;73843.84;;;-214.20;100.00
50322;BME280;36227;53.366;-1.426;2023-03-13T00:21:38;73846.37;;;-213.96;100.00
50322;BME280;36227;53.366;-1.426;2023-03-13T00:24:09;73838.79;;;-213.96;100.00
50322;BME280;36227;53.366;-1.426;2023-03-13T00:26:29;73848.64;;;-213.96;100.00
50322;BME280;36227;53.366;-1.426;2023-03-13T00:28:54;73871.12;;;-213.72;100.00
50322;BME280;36227;53.366;-1.426;2023-03-13T00:31:21;73892.33;;;-213.48;100.00
50322;BME280;36227;53.366;-1.426;2023-03-13T00:33:46;73856.72;;;-214.91;100.00
50322;BME280;36227;53.366;-1.426;2023-03-13T00:36:10;73851.67;;;-214.20;100.00
50322;BME280;36227;53.366;-1.426;2023-03-13T00:38:35;73837.15;;;-213.96;100.00
50322;BME280;36227;53.366;-1.426;2023-03-13T00:41:01;73843.21;;;-213.96;100.00
50322;BME280;36227;53.366;-1.426;2023-03-13T00:43:25;73839.04;;;-213.48;100.00
50322;BME280;36227;53.366;-1.426;2023-03-13T00:45:50;73835.25;;;-213.72;100.00
50322;BME280;36227;53.366;-1.426;2023-03-13T00:48:15;73845.23;;;-213.48;100.00
50322;BME280;36227;53.366;-1.426;2023-03-13T00:50:40;73825.53;;;-213.24;100.00
50322;BME280;36227;53.366;-1.426;2023-03-13T00:53:05;73808.11;;;-213.48;100.00
50322;BME280;36227;53.366;-1.426;2023-03-13T00:55:31;73779.69;;;-214.20;100.00
50322;BME280;36227;53.366;-1.426;2023-03-13T00:57:55;73764.92;;;-213.96;100.00
50322;BME280;36227;53.366;-1.426;2023-03-13T01:00:21;73752.80;;;-213.96;100.00
50322;BME280;36227;53.366;-1.426;2023-03-13T01:02:46;73753.30;;;-213.72;100.00
50322;BME280;36227;53.366;-1.426;2023-03-13T01:05:11;73760.50;;;-213.48;100.00
50322;BME280;36227;53.366;-1.426;2023-03-13T01:07:36;73749.52;;;-213.48;100.00
50322;BME280;36227;53.366;-1.426;2023-03-13T01:10:01;73785.00;;;-213.00;100.00
50322;BME280;36227;53.366;-1.426;2023-03-13T01:12:26;73732.34;;;-213.72;100.00
50322;BME280;36227;53.366;-1.426;2023-03-13T01:14:52;73757.60;;;-213.48;100.00
50322;BME280;36227;53.366;-1.426;2023-03-13T01:17:17;73767.32;;;-213.96;100.00
50322;BME280;36227;53.366;-1.426;2023-03-13T01:19:42;73745.85;;;-213.96;100.00
50322;BME280;36227;53.366;-1.426;2023-03-13T01:22:07;73759.49;;;-213.48;100.00
50322;BME280;36227;53.366;-1.426;2023-03-13T01:24:32;73734.62;;;-213.48;100.00
50322;BME280;36227;53.366;-1.426;2023-03-13T01:26:58;73726.16;;;-213.24;100.00
50322;BME280;36227;53.366;-1.426;2023-03-13T01:29:22;73721.36;;;-213.48;100.00
50322;BME280;36227;53.366;-1.426;2023-03-13T01:31:47;73707.97;;;-213.48;100.00
50322;BME280;36227;53.366;-1.426;2023-03-13T01:34:12;73719.34;;;-213.24;100.00
50322;BME280;36227;53.366;-1.426;2023-03-13T01:36:38;73695.85;;;-213.48;100.00
50322;BME280;36227;53.366;-1.426;2023-03-13T01:39:04;73685.50;;;-213.72;100.00
50322;BME280;36227;53.366;-1.426;2023-03-13T01:41:29;73667.06;;;-214.20;100.00
50322;BME280;36227;53.366;-1.426;2023-03-13T01:43:53;73650.40;;;-213.96;100.00
50322;BME280;36227;53.366;-1.426;2023-03-13T01:46:19;73655.07;;;-213.48;100.00
50322;BME280;36227;53.366;-1.426;2023-03-13T01:48:48;73649.26;;;-213.48;100.00
50322;BME280;36227;53.366;-1.426;2023-03-13T01:51:18;73632.84;;;-213.48;100.00
50322;BME280;36227;53.366;-1.426;2023-03-13T01:53:37;73638.02;;;-213.48;100.00
50322;BME280;36227;53.366;-1.426;2023-03-13T01:56:00;73624.51;;;-213.48;100.00
50322;BME280;36227;53.366;-1.426;2023-03-13T01:58:25;73642.57;;;-213.48;100.00
50322;BME280;36227;53.366;-1.426;2023-03-13T02:00:50;73652.16;;;-213.48;100.00
50322;BME280;36227;53.366;-1.426;2023-03-13T02:03:18;73658.98;;;-213.96;100.00
50322;BME280;36227;53.366;-1.426;2023-03-13T02:05:41;73667.82;;;-213.96;100.00
50322;BME280;36227;53.366;-1.426;2023-03-13T02:08:07;73673.50;;;-213.48;100.00
50322;BME280;36227;53.366;-1.426;2023-03-13T02:10:31;73654.06;;;-213.72;100.00
50322;BME280;36227;53.366;-1.426;2023-03-13T02:12:58;73625.52;;;-213.96;100.00
50322;BME280;36227;53.366;-1.426;2023-03-13T02:15:23;73650.27;;;-213.48;100.00
50322;BME280;36227;53.366;-1.426;2023-03-13T02:17:46;73638.53;;;-213.48;100.00
50322;BME280;36227;53.366;-1.426;2023-03-13T02:20:13;73614.41;;;-213.72;100.00
50322;BME280;36227;53.366;-1.426;2023-03-13T02:22:41;73623.25;;;-213.24;100.00
50322;BME280;36227;53.366;-1.426;2023-03-13T02:25:05;73583.85;;;-214.43;100.00
50322;BME280;36227;53.366;-1.426;2023-03-13T02:27:26;73594.59;;;-213.96;100.00
50322;BME280;36227;53.366;-1.426;2023-03-13T02:29:51;73580.57;;;-213.96;100.00
50322;BME280;36227;53.366;-1.426;2023-03-13T02:32:16;73591.56;;;-213.48;100.00
50322;BME280;36227;53.366;-1.426;2023-03-13T02:34:43;73578.55;;;-213.72;100.00
50322;BME280;36227;53.366;-1.426;2023-03-13T02:37:07;73581.08;;;-213.24;100.00
50322;BME280;36227;53.366;-1.426;2023-03-13T02:39:32;73568.70;;;-213.48;100.00
50322;BME280;36227;53.366;-1.426;2023-03-13T02:41:57;73574.00;;;-213.24;100.00
50322;BME280;36227;53.366;-1.426;2023-03-13T02:44:21;73551.02;;;-213.48;100.00
50322;BME280;36227;53.366;-1.426;2023-03-13T02:46:48;73548.25;;;-214.20;100.00
50322;BME280;36227;53.366;-1.426;2023-03-13T02:49:20;73543.95;;;-213.96;100.00
50322;BME280;36227;53.366;-1.426;2023-03-13T02:51:40;73539.03;;;-213.48;100.00
50322;BME280;36227;53.366;-1.426;2023-03-13T02:54:04;73537.14;;;-213.48;100.00
50322;BME280;36227;53.366;-1.426;2023-03-13T02:56:30;73518.95;;;-213.48;100.00
50322;BME280;36227;53.366;-1.426;2023-03-13T02:58:52;73518.32;;;-213.48;100.00
50322;BME280;36227;53.366;-1.426;2023-03-13T03:01:17;73530.32;;;-213.24;100.00
50322;BME280;36227;53.366;-1.426;2023-03-13T03:03:42;73529.18;;;-213.48;100.00
50322;BME280;36227;53.366;-1.426;2023-03-13T03:06:10;73538.90;;;-213.48;100.00
50322;BME280;36227;53.366;-1.426;2023-03-13T03:08:34;73534.36;;;-213.72;100.00
50322;BME280;36227;53.366;-1.426;2023-03-13T03:11:00;73520.22;;;-214.43;100.00
50322;BME280;36227;53.366;-1.426;2023-03-13T03:13:23;73537.51;;;-213.96;100.00
50322;BME280;36227;53.366;-1.426;2023-03-13T03:15:48;73527.29;;;-213.72;100.00
50322;BME280;36227;53.366;-1.426;2023-03-13T03:18:19;73527.92;;;-213.48;100.00
50322;BME280;36227;53.366;-1.426;2023-03-13T03:20:38;73538.02;;;-213.24;100.00
50322;BME280;36227;53.366;-1.426;2023-03-13T03:23:03;73530.95;;;-213.72;100.00
50322;BME280;36227;53.366;-1.426;2023-03-13T03:25:29;73514.03;;;-213.48;100.00
50322;BME280;36227;53.366;-1.426;2023-03-13T03:27:54;73499.51;;;-213.72;100.00
50322;BME280;36227;53.366;-1.426;2023-03-13T03:30:19;73515.04;;;-213.72;100.00
50322;BME280;36227;53.366;-1.426;2023-03-13T03:32:44;73498.75;;;-214.43;100.00
50322;BME280;36227;53.366;-1.426;2023-03-13T03:35:10;73492.19;;;-213.96;100.00
50322;BME280;36227;53.366;-1.426;2023-03-13T03:37:35;73504.94;;;-213.48;100.00
50322;BME280;36227;53.366;-1.426;2023-03-13T03:40:00;73512.51;;;-213.48;100.00
50322;BME280;36227;53.366;-1.426;2023-03-13T03:42:25;73520.09;;;-213.48;100.00
50322;BME280;36227;53.366;-1.426;2023-03-13T03:44:50;73505.44;;;-213.48;100.00
50322;BME280;36227;53.366;-1.426;2023-03-13T03:47:27;73502.79;;;-213.48;100.00
50322;BME280;36227;53.366;-1.426;2023-03-13T03:49:40;73537.14;;;-213.48;100.00
50322;BME280;36227;53.366;-1.426;2023-03-13T03:52:08;73542.31;;;-213.00;100.00
50322;BME280;36227;53.366;-1.426;2023-03-13T03:54:31;73528.55;;;-213.96;100.00
50322;BME280;36227;53.366;-1.426;2023-03-13T03:56:56;73533.60;;;-214.20;100.00
50322;BME280;36227;53.366;-1.426;2023-03-13T03:59:21;73528.30;;;-213.96;100.00
50322;BME280;36227;53.366;-1.426;2023-03-13T04:01:45;73510.75;;;-213.96;100.00
50322;BME280;36227;53.366;-1.426;2023-03-13T04:04:11;73547.87;;;-213.48;100.00
50322;BME280;36227;53.366;-1.426;2023-03-13T04:06:36;73544.71;;;-213.48;100.00
50322;BME280;36227;53.366;-1.426;2023-03-13T04:09:01;73536.88;;;-213.00;100.00
50322;BME280;36227;53.366;-1.426;2023-03-13T04:11:31;73540.80;;;-213.00;100.00
50322;BME280;36227;53.366;-1.426;2023-03-13T04:13:51;73520.72;;;-213.48;100.00
50322;BME280;36227;53.366;-1.426;2023-03-13T04:16:17;73497.87;;;-213.96;100.00
50322;BME280;36227;53.366;-1.426;2023-03-13T04:18:42;73486.76;;;-214.43;100.00
50322;BME280;36227;53.366;-1.426;2023-03-13T04:21:07;73476.28;;;-213.96;100.00
50322;BME280;36227;53.366;-1.426;2023-03-13T04:23:33;73462.01;;;-213.48;100.00
50322;BME280;36227;53.366;-1.426;2023-03-13T04:26:03;73459.23;;;-213.72;100.00
50322;BME280;36227;53.366;-1.426;2023-03-13T04:28:22;73442.94;;;-213.96;100.00
50322;BME280;36227;53.366;-1.426;2023-03-13T04:30:47;73427.79;;;-213.96;100.00
50322;BME280;36227;53.366;-1.426;2023-03-13T04:40:28;73403.17;;;-214.91;100.00
50322;BME280;36227;53.366;-1.426;2023-03-13T04:42:53;73419.21;;;-213.96;100.00
50322;BME280;36227;53.366;-1.426;2023-03-13T04:45:18;73437.64;;;-213.96;100.00
50322;BME280;36227;53.366;-1.426;2023-03-13T04:47:43;73417.82;;;-213.96;100.00
50322;BME280;36227;53.366;-1.426;2023-03-13T04:50:09;73421.48;;;-213.72;100.00
50322;BME280;36227;53.366;-1.426;2023-03-13T04:52:33;73416.30;;;-213.96;100.00
50322;BME280;36227;53.366;-1.426;2023-03-13T04:54:58;73418.83;;;-213.48;100.00
50322;BME280;36227;53.366;-1.426;2023-03-13T04:57:23;73429.81;;;-213.72;100.00
50322;BME280;36227;53.366;-1.426;2023-03-13T04:59:49;73442.57;;;-213.24;100.00
50322;BME280;36227;53.366;-1.426;2023-03-13T05:02:14;73441.81;;;-214.20;100.00
50322;BME280;36227;53.366;-1.426;2023-03-13T05:04:40;73445.22;;;-213.48;100.00
50322;BME280;36227;53.366;-1.426;2023-03-13T05:07:04;73448.00;;;-213.48;100.00
50322;BME280;36227;53.366;-1.426;2023-03-13T05:09:30;73449.89;;;-213.48;100.00
50322;BME280;36227;53.366;-1.426;2023-03-13T05:11:55;73427.41;;;-213.48;100.00
50322;BME280;36227;53.366;-1.426;2023-03-13T05:14:20;73431.46;;;-213.24;100.00
50322;BME280;36227;53.366;-1.426;2023-03-13T05:16:45;73430.82;;;-213.00;100.00
50322;BME280;36227;53.366;-1.426;2023-03-13T05:19:10;73409.23;;;-213.48;100.00
50322;BME280;36227;53.366;-1.426;2023-03-13T05:21:36;73416.18;;;-213.48;100.00
50322;BME280;36227;53.366;-1.426;2023-03-13T05:24:03;73398.50;;;-214.20;100.00
50322;BME280;36227;53.366;-1.426;2023-03-13T05:26:27;73410.75;;;-213.72;100.00
50322;BME280;36227;53.366;-1.426;2023-03-13T05:28:52;73402.92;;;-213.24;100.00
50322;BME280;36227;53.366;-1.426;2023-03-13T05:31:17;73395.09;;;-213.24;100.00
50322;BME280;36227;53.366;-1.426;2023-03-13T05:33:43;73389.03;;;-213.48;100.00
50322;BME280;36227;53.366;-1.426;2023-03-13T05:36:09;73372.37;;;-213.48;100.00
50322;BME280;36227;53.366;-1.426;2023-03-13T05:38:33;73406.71;;;-213.00;100.00
50322;BME280;36227;53.366;-1.426;2023-03-13T05:40:59;73409.23;;;-213.48;100.00
50322;BME280;36227;53.366;-1.426;2023-03-13T05:43:24;73387.52;;;-213.48;100.00
50322;BME280;36227;53.366;-1.426;2023-03-13T05:45:51;73399.51;;;-213.48;100.00
50322;BME280;36227;53.366;-1.426;2023-03-13T05:48:15;73384.36;;;-213.96;100.00
50322;BME280;36227;53.366;-1.426;2023-03-13T05:50:41;73393.07;;;-213.72;100.00
50322;BME280;36227;53.366;-1.426;2023-03-13T05:53:05;73383.35;;;-213.48;100.00
50322;BME280;36227;53.366;-1.426;2023-03-13T05:55:31;73399.01;;;-213.48;100.00
50322;BME280;36227;53.366;-1.426;2023-03-13T05:57:57;73407.84;;;-213.00;100.00
50322;BME280;36227;53.366;-1.426;2023-03-13T06:00:22;73395.60;;;-213.00;100.00
50322;BME280;36227;53.366;-1.426;2023-03-13T06:02:47;73386.63;;;-213.48;100.00
50322;BME280;36227;53.366;-1.426;2023-03-13T06:05:18;73388.91;;;-213.24;100.00
50322;BME280;36227;53.366;-1.426;2023-03-13T06:10:13;73394.97;;;-213.72;100.00
50322;BME280;36227;53.366;-1.426;2023-03-13T06:12:29;73386.51;;;-213.72;100.00
50322;BME280;36227;53.366;-1.426;2023-03-13T06:14:54;73390.29;;;-213.48;100.00
50322;BME280;36227;53.366;-1.426;2023-03-13T06:17:19;73381.58;;;-213.72;100.00
50322;BME280;36227;53.366;-1.426;2023-03-13T06:19:45;73378.43;;;-213.48;100.00
50322;BME280;36227;53.366;-1.426;2023-03-13T06:22:10;73367.32;;;-213.48;100.00
50322;BME280;36227;53.366;-1.426;2023-03-13T06:24:34;73359.49;;;-213.48;100.00
50322;BME280;36227;53.366;-1.426;2023-03-13T06:26:59;73366.56;;;-213.48;100.00
50322;BME280;36227;53.366;-1.426;2023-03-13T06:29:38;73404.69;;;-213.48;100.00
50322;BME280;36227;53.366;-1.426;2023-03-13T06:31:49;73415.29;;;-213.96;100.00
50322;BME280;36227;53.366;-1.426;2023-03-13T06:34:14;73406.83;;;-213.96;100.00
50322;BME280;36227;53.366;-1.426;2023-03-13T06:36:39;73428.93;;;-213.48;100.00
50322;BME280;36227;53.366;-1.426;2023-03-13T06:39:06;73421.73;;;-213.48;100.00
50322;BME280;36227;53.366;-1.426;2023-03-13T06:41:45;73447.74;;;-213.48;100.00
50322;BME280;36227;53.366;-1.426;2023-03-13T06:43:55;73503.93;;;-213.00;100.00
50322;BME280;36227;53.366;-1.426;2023-03-13T06:46:22;73511.00;;;-213.00;100.00
50322;BME280;36227;53.366;-1.426;2023-03-13T06:48:46;73521.10;;;-213.00;100.00
50322;BME280;36227;53.366;-1.426;2023-03-13T06:51:12;73553.93;;;-213.24;100.00
50322;BME280;36227;53.366;-1.426;2023-03-13T06:53:37;73557.84;;;-213.24;100.00
50322;BME280;36227;53.366;-1.426;2023-03-13T06:56:02;73594.21;;;-213.00;100.00
50322;BME280;36227;53.366;-1.426;2023-03-13T06:58:27;73586.88;;;-213.00;100.00
50322;BME280;36227;53.366;-1.426;2023-03-13T07:00:52;73589.41;;;-213.00;100.00
50322;BME280;36227;53.366;-1.426;2023-03-13T07:03:17;73581.96;;;-212.76;100.00
50322;BME280;36227;53.366;-1.426;2023-03-13T07:05:44;73565.42;;;-213.00;100.00
50322;BME280;36227;53.366;-1.426;2023-03-13T07:08:09;73570.47;;;-213.00;100.00
50322;BME280;36227;53.366;-1.426;2023-03-13T07:10:34;73565.42;;;-213.00;100.00
50322;BME280;36227;53.366;-1.426;2023-03-13T07:13:00;73542.57;;;-213.48;100.00
50322;BME280;36227;53.366;-1.426;2023-03-13T07:15:25;73535.37;;;-213.48;100.00
50322;BME280;36227;53.366;-1.426;2023-03-13T07:17:51;73516.81;;;-213.00;100.00
50322;BME280;36227;53.366;-1.426;2023-03-13T07:20:16;73520.60;;;-213.00;100.00
50322;BME280;36227;53.366;-1.426;2023-03-13T07:22:42;73513.52;;;-213.00;100.00
50322;BME280;36227;53.366;-1.426;2023-03-13T07:25:08;73509.61;;;-213.00;100.00
50322;BME280;36227;53.366;-1.426;2023-03-13T07:27:33;73500.90;;;-213.00;100.00
50322;BME280;36227;53.366;-1.426;2023-03-13T07:29:58;73517.44;;;-212.52;100.00
50322;BME280;36227;53.366;-1.426;2023-03-13T07:32:23;73507.97;;;-212.52;100.00
50322;BME280;36227;53.366;-1.426;2023-03-13T07:34:49;73506.45;;;-213.24;100.00
50322;BME280;36227;53.366;-1.426;2023-03-13T07:37:15;73486.50;;;-213.48;100.00
50322;BME280;36227;53.366;-1.426;2023-03-13T07:39:41;73502.92;;;-213.24;100.00
50322;BME280;36227;53.366;-1.426;2023-03-13T07:42:06;73495.22;;;-213.00;100.00
50322;BME280;36227;53.366;-1.426;2023-03-13T07:44:31;73528.80;;;-213.00;100.00
50322;BME280;36227;53.366;-1.426;2023-03-13T07:46:59;73518.32;;;-213.00;100.00
50322;BME280;36227;53.366;-1.426;2023-03-13T07:49:21;73543.95;;;-212.52;100.00
50322;BME280;36227;53.366;-1.426;2023-03-13T07:51:47;73545.22;;;-212.76;100.00
50322;BME280;36227;53.366;-1.426;2023-03-13T07:54:12;73584.48;;;-212.52;100.00
50322;BME280;36227;53.366;-1.426;2023-03-13T07:56:39;73579.69;;;-213.24;100.00
50322;BME280;36227;53.366;-1.426;2023-03-13T07:59:03;73571.98;;;-213.48;100.00
50322;BME280;36227;53.366;-1.426;2023-03-13T08:01:28;73576.78;;;-213.00;100.00
50322;BME280;36227;53.366;-1.426;2023-03-13T08:03:54;73571.61;;;-213.00;100.00
50322;BME280;36227;53.366;-1.426;2023-03-13T08:06:21;73569.59;;;-212.76;100.00
50322;BME280;36227;53.366;-1.426;2023-03-13T08:08:45;73578.42;;;-213.00;100.00
50322;BME280;36227;53.366;-1.426;2023-03-13T08:11:12;73571.35;;;-212.76;100.00
50322;BME280;36227;53.366;-1.426;2023-03-13T08:13:36;73551.02;;;-213.00;100.00
50322;BME280;36227;53.366;-1.426;2023-03-13T08:16:02;73521.23;;;-213.00;100.00
50322;BME280;36227;53.366;-1.426;2023-03-13T08:18:26;73481.71;;;-213.48;100.00
50322;BME280;36227;53.366;-1.426;2023-03-13T08:20:52;73502.54;;;-213.48;100.00
50322;BME280;36227;53.366;-1.426;2023-03-13T08:23:17;73485.87;;;-213.24;100.00
50322;BME280;36227;53.366;-1.426;2023-03-13T08:25:42;73468.83;;;-213.24;100.00
50322;BME280;36227;53.366;-1.426;2023-03-13T08:28:08;73491.93;;;-213.00;100.00
50322;BME280;36227;53.366;-1.426;2023-03-13T08:30:33;73490.42;;;-212.76;100.00
50322;BME280;36227;53.366;-1.426;2023-03-13T08:32:58;73454.06;;;-213.24;100.00
50322;BME280;36227;53.366;-1.426;2023-03-13T08:35:23;73447.62;;;-213.00;100.00
50322;BME280;36227;53.366;-1.426;2023-03-13T08:37:48;73447.36;;;-212.76;100.00
50322;BME280;36227;53.366;-1.426;2023-03-13T08:40:14;73449.01;;;-213.24;100.00
50322;BME280;36227;53.366;-1.426;2023-03-13T08:42:39;73425.14;;;-213.72;100.00
50322;BME280;36227;53.366;-1.426;2023-03-13T08:45:06;73408.85;;;-213.00;100.00
50322;BME280;36227;53.366;-1.426;2023-03-13T08:47:30;73409.99;;;-213.24;100.00
50322;BME280;36227;53.366;-1.426;2023-03-13T08:49:55;73419.59;;;-213.00;100.00
50322;BME280;36227;53.366;-1.426;2023-03-13T08:52:21;73395.35;;;-213.00;100.00
50322;BME280;36227;53.366;-1.426;2023-03-13T08:54:47;73392.44;;;-213.00;100.00
50322;BME280;36227;53.366;-1.426;2023-03-13T08:57:11;73407.21;;;-213.00;100.00
50322;BME280;36227;53.366;-1.426;2023-03-13T08:59:36;73432.09;;;-213.00;100.00
50322;BME280;36227;53.366;-1.426;2023-03-13T09:02:02;73430.95;;;-213.24;100.00
50322;BME280;36227;53.366;-1.426;2023-03-13T09:04:26;73414.16;;;-213.48;100.00
50322;BME280;36227;53.366;-1.426;2023-03-13T09:06:51;73401.28;;;-213.48;100.00
50322;BME280;36227;53.366;-1.426;2023-03-13T09:09:16;73414.03;;;-213.00;100.00
50322;BME280;36227;53.366;-1.426;2023-03-13T09:11:42;73461.00;;;-212.52;100.00
50322;BME280;36227;53.366;-1.426;2023-03-13T09:14:09;73459.61;;;-212.76;100.00
50322;BME280;36227;53.366;-1.426;2023-03-13T09:16:33;73441.43;;;-213.00;100.00
50322;BME280;36227;53.366;-1.426;2023-03-13T09:18:58;73435.87;;;-213.00;100.00
50322;BME280;36227;53.366;-1.426;2023-03-13T09:21:24;73411.88;;;-213.00;100.00
50322;BME280;36227;53.366;-1.426;2023-03-13T09:23:49;73421.10;;;-212.76;100.00
50322;BME280;36227;53.366;-1.426;2023-03-13T09:26:14;73424.76;;;-213.48;100.00
50322;BME280;36227;53.366;-1.426;2023-03-13T09:28:38;73392.95;;;-213.48;100.00
50322;BME280;36227;53.366;-1.426;2023-03-13T09:31:08;73389.16;;;-213.00;100.00
50322;BME280;36227;53.366;-1.426;2023-03-13T09:33:28;73386.76;;;-213.00;100.00
50322;BME280;36227;53.366;-1.426;2023-03-13T09:35:53;73370.98;;;-213.00;100.00
50322;BME280;36227;53.366;-1.426;2023-03-13T09:38:20;73334.49;;;-213.48;100.00
50322;BME280;36227;53.366;-1.426;2023-03-13T09:40:46;73357.72;;;-213.00;100.00
50322;BME280;36227;53.366;-1.426;2023-03-13T09:43:20;73351.41;;;-213.00;100.00
50322;BME280;36227;53.366;-1.426;2023-03-13T09:45:37;73364.16;;;-212.76;100.00
50322;BME280;36227;53.366;-1.426;2023-03-13T09:48:03;73341.94;;;-213.48;100.00
50322;BME280;36227;53.366;-1.426;2023-03-13T09:50:27;73356.21;;;-213.24;100.00
50322;BME280;36227;53.366;-1.426;2023-03-13T09:52:53;73349.89;;;-213.24;100.00
50322;BME280;36227;53.366;-1.426;2023-03-13T09:55:19;73359.99;;;-213.00;100.00
50322;BME280;36227;53.366;-1.426;2023-03-13T09:57:44;73359.24;;;-213.00;100.00
50322;BME280;36227;53.366;-1.426;2023-03-13T10:00:09;73367.44;;;-213.00;100.00
50322;BME280;36227;53.366;-1.426;2023-03-13T10:02:32;73382.59;;;-213.00;100.00
50322;BME280;36227;53.366;-1.426;2023-03-13T10:05:02;73368.07;;;-213.00;100.00
50322;BME280;36227;53.366;-1.426;2023-03-13T10:07:20;73346.74;;;-213.00;100.00
50322;BME280;36227;53.366;-1.426;2023-03-13T10:09:46;73382.34;;;-213.00;100.00
50322;BME280;36227;53.366;-1.426;2023-03-13T10:12:16;73392.95;;;-213.48;100.00
50322;BME280;36227;53.366;-1.426;2023-03-13T10:14:42;73399.64;;;-213.00;100.00
50322;BME280;36227;53.366;-1.426;2023-03-13T10:17:06;73378.81;;;-213.00;100.00
50322;BME280;36227;53.366;-1.426;2023-03-13T10:19:32;73372.11;;;-213.00;100.00
50322;BME280;36227;53.366;-1.426;2023-03-13T10:21:53;73377.04;;;-213.00;100.00
50322;BME280;36227;53.366;-1.426;2023-03-13T10:24:21;73391.56;;;-212.52;100.00
50322;BME280;36227;53.366;-1.426;2023-03-13T10:26:41;73352.04;;;-213.00;100.00
50322;BME280;36227;53.366;-1.426;2023-03-13T10:29:18;73350.40;;;-213.00;100.00
50322;BME280;36227;53.366;-1.426;2023-03-13T10:31:34;73339.29;;;-213.48;100.00
50322;BME280;36227;53.366;-1.426;2023-03-13T10:34:05;73311.89;;;-213.96;100.00
50322;BME280;36227;53.366;-1.426;2023-03-13T10:36:22;73304.19;;;-213.48;100.00
50322;BME280;36227;53.366;-1.426;2023-03-13T10:38:49;73353.43;;;-213.00;100.00
50322;BME280;36227;53.366;-1.426;2023-03-13T10:41:18;73353.55;;;-213.00;100.00
50322;BME280;36227;53.366;-1.426;2023-03-13T10:46:03;73345.35;;;-213.00;100.00
50322;BME280;36227;53.366;-1.426;2023-03-13T10:48:30;73337.90;;;-213.00;100.00
50322;BME280;36227;53.366;-1.426;2023-03-13T10:50:54;73359.49;;;-213.00;100.00
50322;BME280;36227;53.366;-1.426;2023-03-13T10:53:31;73341.94;;;-213.24;100.00
50322;BME280;36227;53.366;-1.426;2023-03-13T10:55:43;73352.80;;;-213.72;100.00
50322;BME280;36227;53.366;-1.426;2023-03-13T10:58:16;73331.08;;;-213.48;100.00
50322;BME280;36227;53.366;-1.426;2023-03-13T11:00:35;73335.50;;;-213.24;100.00
50322;BME280;36227;53.366;-1.426;2023-03-13T11:02:59;73346.99;;;-213.48;100.00
50322;BME280;36227;53.366;-1.426;2023-03-13T11:05:32;73364.66;;;-213.00;100.00
50322;BME280;36227;53.366;-1.426;2023-03-13T11:07:49;73373.75;;;-213.00;100.00
50322;BME280;36227;53.366;-1.426;2023-03-13T11:10:18;73394.59;;;-213.00;100.00
50322;BME280;36227;53.366;-1.426;2023-03-13T11:12:43;73368.20;;;-213.24;100.00
50322;BME280;36227;53.366;-1.426;2023-03-13T11:15:12;73370.47;;;-213.00;100.00
50322;BME280;36227;53.366;-1.426;2023-03-13T11:17:35;73372.62;;;-213.72;100.00
50322;BME280;36227;53.366;-1.426;2023-03-13T11:20:02;73366.18;;;-213.24;100.00
50322;BME280;36227;53.366;-1.426;2023-03-13T11:22:28;73372.24;;;-213.24;100.00
50322;BME280;36227;53.366;-1.426;2023-03-13T11:24:52;73387.26;;;-213.00;100.00
50322;BME280;36227;53.366;-1.426;2023-03-13T11:27:22;73369.59;;;-213.00;100.00
50322;BME280;36227;53.366;-1.426;2023-03-13T11:29:43;73369.21;;;-212.76;100.00
50322;BME280;36227;53.366;-1.426;2023-03-13T11:32:07;73362.14;;;-212.76;100.00
50322;BME280;36227;53.366;-1.426;2023-03-13T11:34:32;73352.54;;;-213.00;100.00
50322;BME280;36227;53.366;-1.426;2023-03-13T11:36:58;73320.60;;;-213.48;100.00
50322;BME280;36227;53.366;-1.426;2023-03-13T11:41:54;73302.04;;;-213.48;100.00
50322;BME280;36227;53.366;-1.426;2023-03-13T11:44:21;73312.77;;;-213.00;100.00
50322;BME280;36227;53.366;-1.426;2023-03-13T11:46:46;73278.31;;;-213.24;100.00
50322;BME280;36227;53.366;-1.426;2023-03-13T11:49:13;73260.88;;;-213.24;100.00
50322;BME280;36227;53.366;-1.426;2023-03-13T11:51:30;73274.39;;;-213.00;100.00
50322;BME280;36227;53.366;-1.426;2023-03-13T11:54:10;73288.78;;;-213.00;100.00
50322;BME280;36227;53.366;-1.426;2023-03-13T11:56:18;73293.46;;;-213.24;100.00
50322;BME280;36227;53.366;-1.426;2023-03-13T11:58:51;73305.32;;;-213.00;100.00
50322;BME280;36227;53.366;-1.426;2023-03-13T12:01:09;73320.47;;;-213.48;100.00
50322;BME280;36227;53.366;-1.426;2023-03-13T12:03:35;73318.45;;;-213.48;100.00
50322;BME280;36227;53.366;-1.426;2023-03-13T12:05:58;73350.78;;;-213.00;100.00
50322;BME280;36227;53.366;-1.426;2023-03-13T12:08:24;73362.27;;;-213.00;100.00
50322;BME280;36227;53.366;-1.426;2023-03-13T12:10:48;73368.45;;;-213.00;100.00
50322;BME280;36227;53.366;-1.426;2023-03-13T12:13:14;73360.62;;;-213.24;100.00
50322;BME280;36227;53.366;-1.426;2023-03-13T12:15:39;73351.15;;;-213.24;100.00
50322;BME280;36227;53.366;-1.426;2023-03-13T12:18:04;73369.34;;;-213.00;100.00
50322;BME280;36227;53.366;-1.426;2023-03-13T12:20:31;73377.92;;;-213.24;100.00
50322;BME280;36227;53.366;-1.426;2023-03-13T12:22:57;73372.87;;;-213.96;100.00
50322;BME280;36227;53.366;-1.426;2023-03-13T12:25:20;73381.71;;;-213.24;100.00